Tampa, Florida
Current Conditions -  °F | °C
As of 9:53 AM on Friday 19 Dec 2014 (Local Time) from KTPA Reporting Station
Broken Clouds Broken Clouds  
Wind Chill: 63°   Ceiling: 25000
Heat Index: 63°   Visibility: 10mi
Dew Point: 48°   Wind: 0mph
Humidity: 58%   Direction: NA
Pressure: 30.15"   Gusts: NA
Location:  27.95°N, 82.46°W
Report Text: KTPA 191453Z 00000KT 10SM SCT200 BKN250 17/09 A3015 RMK AO2 SLP208 T01720089 50008
Loading
Personal Weather Stations






























Interactive Weather Map New forecast layout! Learn more

10-Day Weather Forecast

Advertisements
Track Severe Weather on mobile